createdAt,value
2023-03-02T00:01:43.898Z,99.90
2023-03-02T00:04:20.882Z,99.90
2023-03-02T00:06:49.873Z,99.90
2023-03-02T00:09:17.923Z,99.90
2023-03-02T00:11:45.816Z,99.90
2023-03-02T00:14:13.250Z,99.90
2023-03-02T00:16:40.912Z,99.90
2023-03-02T00:19:08.592Z,99.90
2023-03-02T00:21:35.955Z,99.90
2023-03-02T00:24:03.434Z,99.90
2023-03-02T00:26:34.661Z,99.90
2023-03-02T00:29:02.618Z,99.90
2023-03-02T00:31:30.166Z,99.90
2023-03-02T00:33:57.762Z,99.90
2023-03-02T00:36:25.536Z,99.90
2023-03-02T00:38:53.233Z,99.90
2023-03-02T00:41:21.721Z,99.90
2023-03-02T00:43:50.415Z,99.90
2023-03-02T00:46:20.610Z,99.90
2023-03-02T00:48:48.599Z,99.90
2023-03-02T00:51:16.456Z,99.90
2023-03-02T00:53:44.067Z,99.90
2023-03-02T00:56:13.554Z,99.90
2023-03-02T00:58:46.788Z,99.90
2023-03-02T01:01:15.952Z,99.90
2023-03-02T01:03:47.664Z,99.90
2023-03-02T01:06:19.072Z,99.90
2023-03-02T01:08:47.171Z,99.90
2023-03-02T01:11:16.807Z,99.90
2023-03-02T01:13:45.312Z,99.90
2023-03-02T01:16:13.021Z,99.90
2023-03-02T01:18:40.918Z,99.90
2023-03-02T01:21:12.407Z,99.90
2023-03-02T01:23:39.845Z,99.90
2023-03-02T01:26:07.798Z,99.90
2023-03-02T01:28:35.338Z,99.90
2023-03-02T01:31:04.673Z,99.90
2023-03-02T01:33:32.802Z,99.90
2023-03-02T01:36:00.249Z,99.90
2023-03-02T01:38:28.225Z,99.90
2023-03-02T01:40:56.270Z,99.90
2023-03-02T01:43:23.938Z,99.90
2023-03-02T01:46:14.228Z,99.90
2023-03-02T01:49:03.162Z,99.90
2023-03-02T01:51:45.985Z,99.90
2023-03-02T01:54:23.177Z,99.90
2023-03-02T01:56:58.533Z,99.90
2023-03-02T01:59:27.838Z,99.90
2023-03-02T02:01:58.636Z,99.90
2023-03-02T02:04:28.934Z,99.90
2023-03-02T02:07:01.505Z,99.90
2023-03-02T02:09:32.259Z,99.90
2023-03-02T02:11:59.650Z,99.90
2023-03-02T02:14:27.743Z,99.90
2023-03-02T02:16:55.579Z,99.90
2023-03-02T02:20:19.635Z,99.90
2023-03-02T02:23:16.219Z,99.90
2023-03-02T02:26:26.692Z,99.90
2023-03-02T02:29:12.380Z,99.90
2023-03-02T02:32:06.769Z,99.90
2023-03-02T02:34:41.323Z,99.90
2023-03-02T02:37:26.176Z,99.90
2023-03-02T02:39:54.831Z,99.90
2023-03-02T02:42:29.899Z,99.90
2023-03-02T02:45:02.907Z,99.90
2023-03-02T02:47:30.591Z,99.90
2023-03-02T02:49:59.003Z,99.90
2023-03-02T02:52:29.004Z,99.90
2023-03-02T02:54:58.000Z,99.90
2023-03-02T02:57:29.553Z,99.90
2023-03-02T03:00:00.926Z,99.90
2023-03-02T03:02:37.361Z,99.90
2023-03-02T03:05:05.498Z,99.90
2023-03-02T03:07:35.792Z,99.90
2023-03-02T03:10:35.155Z,99.90
2023-03-02T03:13:02.883Z,99.90
2023-03-02T03:15:30.429Z,99.90
2023-03-02T03:17:59.235Z,99.90
2023-03-02T03:20:28.791Z,99.90
2023-03-02T03:22:59.301Z,99.90
2023-03-02T03:25:28.111Z,99.90
2023-03-02T03:27:56.393Z,99.90
2023-03-02T03:30:24.299Z,99.90
2023-03-02T03:32:52.611Z,99.90
2023-03-02T03:35:20.161Z,99.90
2023-03-02T03:37:48.879Z,99.90
2023-03-02T03:40:18.471Z,99.90
2023-03-02T03:42:47.318Z,99.90
2023-03-02T03:45:14.814Z,99.90
2023-03-02T03:47:44.148Z,99.90
2023-03-02T03:50:12.023Z,99.90
2023-03-02T03:52:40.358Z,99.90
2023-03-02T03:55:15.825Z,99.90
2023-03-02T03:57:45.400Z,99.90
2023-03-02T04:00:17.028Z,99.90
2023-03-02T04:02:51.707Z,99.90
2023-03-02T04:05:20.492Z,99.90
2023-03-02T04:07:51.703Z,99.90
2023-03-02T04:10:19.906Z,99.90
2023-03-02T04:12:48.233Z,99.90
2023-03-02T04:15:16.934Z,99.90
2023-03-02T04:17:46.573Z,99.90
2023-03-02T04:20:21.207Z,99.90
2023-03-02T04:22:53.524Z,99.90
2023-03-02T04:25:24.876Z,99.90
2023-03-02T04:27:55.590Z,99.90
2023-03-02T04:30:27.001Z,99.90
2023-03-02T04:32:57.539Z,99.90
2023-03-02T04:35:27.013Z,99.90
2023-03-02T04:37:54.684Z,99.90
2023-03-02T04:40:22.185Z,99.90
2023-03-02T04:42:49.677Z,99.90
2023-03-02T04:45:17.421Z,99.90
2023-03-02T04:47:45.582Z,99.90
2023-03-02T04:50:14.340Z,99.90
2023-03-02T04:52:42.284Z,99.90
2023-03-02T04:55:16.313Z,99.90
2023-03-02T04:57:44.067Z,99.90
2023-03-02T05:00:13.021Z,99.90
2023-03-02T05:02:41.296Z,99.90
2023-03-02T05:05:18.380Z,99.90
2023-03-02T05:07:46.398Z,99.90
2023-03-02T05:10:15.289Z,99.90
2023-03-02T05:12:57.919Z,99.90
2023-03-02T05:15:31.654Z,99.90
2023-03-02T05:17:59.783Z,99.90
2023-03-02T05:20:27.796Z,99.90
2023-03-02T05:22:56.371Z,99.90
2023-03-02T05:25:24.810Z,99.90
2023-03-02T05:27:53.052Z,99.90
2023-03-02T05:30:21.612Z,99.90
2023-03-02T05:32:50.036Z,99.90
2023-03-02T05:35:18.072Z,99.90
2023-03-02T05:37:46.183Z,99.90
2023-03-02T05:40:17.740Z,99.90
2023-03-02T05:42:45.633Z,99.90
2023-03-02T05:45:23.055Z,99.90
2023-03-02T05:47:50.685Z,99.90
2023-03-02T05:50:18.268Z,99.90
2023-03-02T05:52:46.405Z,99.90
2023-03-02T05:55:18.490Z,99.90
2023-03-02T05:57:46.688Z,99.90
2023-03-02T06:00:14.913Z,99.90
2023-03-02T06:02:42.987Z,99.90
2023-03-02T06:05:13.137Z,99.90
2023-03-02T06:10:57.186Z,99.90
2023-03-02T06:13:24.707Z,99.90
2023-03-02T06:15:52.149Z,99.90
2023-03-02T06:18:19.591Z,99.90
2023-03-02T06:20:47.041Z,99.90
2023-03-02T06:23:14.646Z,99.90
2023-03-02T06:25:48.174Z,99.90
2023-03-02T06:28:16.919Z,99.90
2023-03-02T06:30:44.299Z,99.90
2023-03-02T06:33:11.771Z,99.90
2023-03-02T06:35:39.960Z,99.90
2023-03-02T06:38:07.685Z,99.90
2023-03-02T06:40:35.135Z,99.90
2023-03-02T06:43:04.226Z,99.90
2023-03-02T06:45:34.017Z,99.90
2023-03-02T06:48:02.273Z,99.90
2023-03-02T06:50:30.106Z,99.90
2023-03-02T06:53:02.000Z,99.90
2023-03-02T06:55:31.882Z,99.90
2023-03-02T06:57:59.891Z,99.90
2023-03-02T07:00:28.413Z,99.90
2023-03-02T07:03:00.299Z,99.90
2023-03-02T07:05:29.884Z,99.90
2023-03-02T07:07:57.347Z,99.90
2023-03-02T07:10:24.852Z,99.90
2023-03-02T07:12:53.615Z,99.90
2023-03-02T07:15:22.209Z,99.90
2023-03-02T07:17:49.622Z,99.90
2023-03-02T07:20:18.262Z,99.90
2023-03-02T07:22:45.914Z,99.90
2023-03-02T07:25:13.948Z,99.90
2023-03-02T07:27:41.941Z,99.90
2023-03-02T07:30:10.319Z,99.90
2023-03-02T07:32:37.814Z,99.90
2023-03-02T07:35:05.838Z,99.90
2023-03-02T07:37:33.311Z,99.90
2023-03-02T07:40:00.993Z,99.90
2023-03-02T07:42:28.580Z,99.90
2023-03-02T07:44:59.089Z,99.90
2023-03-02T07:47:26.578Z,99.90
2023-03-02T07:49:53.990Z,99.90
2023-03-02T07:52:22.900Z,99.90
2023-03-02T07:54:50.908Z,99.90
2023-03-02T07:57:18.384Z,99.90
2023-03-02T07:59:45.955Z,99.90
2023-03-02T08:02:15.421Z,99.90
2023-03-02T08:04:43.338Z,99.90
2023-03-02T08:07:10.807Z,99.90
2023-03-02T08:09:40.040Z,99.90
2023-03-02T08:12:07.658Z,99.90
2023-03-02T08:14:35.098Z,99.90
2023-03-02T08:17:03.761Z,99.90
2023-03-02T08:19:31.244Z,99.90
2023-03-02T08:21:58.795Z,99.90
2023-03-02T08:24:26.365Z,99.90
2023-03-02T08:26:55.419Z,99.90
2023-03-02T08:29:24.625Z,99.90
2023-03-02T08:31:54.317Z,99.90
2023-03-02T08:34:22.117Z,99.90
2023-03-02T08:36:50.493Z,99.90
2023-03-02T08:39:18.691Z,99.90
2023-03-02T08:41:46.416Z,99.90
2023-03-02T08:44:13.883Z,99.90
2023-03-02T08:46:41.323Z,99.90
2023-03-02T08:49:09.178Z,99.90
2023-03-02T08:51:36.595Z,99.90
2023-03-02T08:54:04.221Z,99.90
2023-03-02T08:56:36.362Z,99.90
2023-03-02T08:59:09.891Z,99.90
2023-03-02T09:01:38.594Z,99.90
2023-03-02T09:04:07.895Z,99.90
2023-03-02T09:06:40.935Z,99.90
2023-03-02T09:09:10.211Z,99.90
2023-03-02T09:11:37.700Z,99.90
2023-03-02T09:14:05.417Z,99.90
2023-03-02T09:16:33.280Z,99.90
2023-03-02T09:19:00.744Z,99.90
2023-03-02T09:21:28.511Z,98.80
2023-03-02T09:23:58.230Z,99.50
2023-03-02T09:26:26.861Z,99.90
2023-03-02T09:28:55.230Z,99.90
2023-03-02T09:31:23.192Z,99.90
2023-03-02T09:33:50.705Z,99.00
2023-03-02T09:36:24.390Z,98.90
2023-03-02T09:38:52.436Z,98.80
2023-03-02T09:42:15.577Z,98.70
2023-03-02T09:45:24.026Z,97.80
2023-03-02T09:48:31.742Z,97.40
2023-03-02T09:51:07.575Z,97.00
2023-03-02T09:53:40.807Z,97.30
2023-03-02T09:56:17.976Z,96.20
2023-03-02T09:58:53.361Z,97.00
2023-03-02T10:01:51.707Z,95.80
2023-03-02T10:04:27.692Z,96.60
2023-03-02T10:07:10.934Z,95.80
2023-03-02T10:09:39.292Z,95.70
2023-03-02T10:12:44.926Z,95.60
2023-03-02T10:15:41.932Z,95.20
2023-03-02T10:18:35.545Z,94.40
2023-03-02T10:21:22.564Z,94.20
2023-03-02T10:24:01.197Z,93.80
2023-03-02T10:26:44.085Z,92.70
2023-03-02T10:29:40.879Z,92.80
2023-03-02T10:32:27.816Z,92.40
2023-03-02T10:34:55.848Z,92.00
2023-03-02T10:37:28.446Z,91.60
2023-03-02T10:39:56.824Z,91.90
2023-03-02T10:42:43.388Z,91.60
2023-03-02T10:45:25.079Z,91.00
2023-03-02T10:48:06.655Z,91.80
2023-03-02T10:50:34.287Z,91.30
2023-03-02T10:53:04.814Z,91.70
2023-03-02T10:55:34.575Z,90.60
2023-03-02T10:58:07.733Z,90.10
2023-03-02T11:00:36.853Z,90.40
2023-03-02T11:03:19.634Z,87.90
2023-03-02T11:05:47.862Z,87.10
2023-03-02T11:08:24.124Z,85.00
2023-03-02T11:11:03.557Z,81.40
2023-03-02T11:13:36.690Z,81.80
2023-03-02T11:16:31.000Z,78.70
2023-03-02T11:19:03.503Z,76.30
2023-03-02T11:22:06.648Z,76.10
2023-03-02T11:24:40.841Z,74.00
2023-03-02T11:27:25.026Z,73.10
2023-03-02T11:30:00.923Z,72.20
2023-03-02T11:32:55.942Z,67.20
2023-03-02T11:35:46.461Z,67.80
2023-03-02T11:38:47.643Z,66.60
2023-03-02T11:41:41.397Z,68.50
2023-03-02T11:44:18.749Z,66.20
2023-03-02T11:46:51.316Z,59.00
2023-03-02T11:49:37.176Z,50.40
2023-03-02T11:52:04.854Z,50.60
2023-03-02T11:54:43.357Z,49.80
2023-03-02T11:57:25.582Z,45.40
2023-03-02T11:59:53.579Z,45.50
2023-03-02T12:02:23.903Z,45.40
2023-03-02T12:05:06.206Z,46.10
2023-03-02T12:07:33.598Z,45.70
2023-03-02T12:10:06.311Z,50.30
2023-03-02T12:12:41.627Z,48.50
2023-03-02T12:15:38.768Z,50.20
2023-03-02T12:18:47.176Z,47.20
2023-03-02T12:21:23.141Z,47.70
2023-03-02T12:23:56.283Z,49.10
2023-03-02T12:26:28.563Z,49.70
2023-03-02T12:29:19.062Z,47.00
2023-03-02T12:31:55.129Z,50.50
2023-03-02T12:34:32.552Z,48.10
2023-03-02T12:37:41.444Z,45.80
2023-03-02T12:40:27.596Z,49.50
2023-03-02T12:43:17.389Z,48.60
2023-03-02T12:46:25.724Z,49.90
2023-03-02T12:49:32.052Z,50.30
2023-03-02T12:52:18.435Z,48.10
2023-03-02T12:54:45.964Z,49.90
2023-03-02T12:57:19.296Z,52.00
2023-03-02T12:59:54.865Z,52.80
2023-03-02T13:02:33.740Z,53.40
2023-03-02T13:05:07.447Z,53.50
2023-03-02T13:07:57.997Z,52.70
2023-03-02T13:11:02.732Z,52.70
2023-03-02T13:13:39.133Z,53.50
2023-03-02T13:16:26.249Z,54.10
2023-03-02T13:18:57.515Z,53.70
2023-03-02T13:21:32.858Z,54.00
2023-03-02T13:24:01.419Z,53.90
2023-03-02T13:26:34.749Z,55.50
2023-03-02T13:29:20.684Z,53.30
2023-03-02T13:31:48.315Z,53.70
2023-03-02T13:34:46.727Z,54.30
2023-03-02T13:37:21.778Z,54.10
2023-03-02T13:39:57.036Z,54.40
2023-03-02T13:42:36.530Z,55.20
2023-03-02T13:45:24.165Z,53.90
2023-03-02T13:47:52.467Z,55.30
2023-03-02T13:50:25.937Z,52.20
2023-03-02T13:52:57.168Z,55.80
2023-03-02T13:55:25.370Z,54.20
2023-03-02T13:57:54.407Z,54.30
2023-03-02T14:00:28.659Z,54.60
2023-03-02T14:02:56.025Z,54.90
2023-03-02T14:05:27.189Z,53.50
2023-03-02T14:07:54.600Z,54.00
2023-03-02T14:10:22.044Z,54.70
2023-03-02T14:13:13.167Z,54.10
2023-03-02T14:15:49.400Z,52.50
2023-03-02T14:18:28.470Z,54.00
2023-03-02T14:20:56.935Z,53.50
2023-03-02T14:23:27.950Z,54.60
2023-03-02T14:25:56.637Z,52.90
2023-03-02T14:28:35.679Z,52.10
2023-03-02T14:31:03.234Z,52.30
2023-03-02T14:33:30.716Z,53.80
2023-03-02T14:35:58.861Z,54.50
2023-03-02T14:38:27.141Z,51.60
2023-03-02T14:40:54.840Z,51.70
2023-03-02T14:43:23.935Z,51.70
2023-03-02T14:45:55.037Z,52.10
2023-03-02T14:48:22.446Z,52.40
2023-03-02T14:50:51.476Z,54.40
2023-03-02T14:53:29.701Z,52.10
2023-03-02T14:55:57.278Z,52.30
2023-03-02T14:58:33.874Z,51.30
2023-03-02T15:01:01.440Z,51.50
2023-03-02T15:03:29.482Z,53.20
2023-03-02T15:06:01.589Z,52.30
2023-03-02T15:08:30.121Z,51.90
2023-03-02T15:10:58.130Z,53.10
2023-03-02T15:13:25.512Z,53.30
2023-03-02T15:15:53.151Z,54.10
2023-03-02T15:18:20.560Z,54.30
2023-03-02T15:20:48.012Z,54.20
2023-03-02T15:23:15.465Z,54.20
2023-03-02T15:25:43.160Z,56.90
2023-03-02T15:28:10.823Z,56.40
2023-03-02T15:30:38.282Z,55.40
2023-03-02T15:33:05.735Z,56.00
2023-03-02T15:35:33.206Z,56.40
2023-03-02T15:38:02.658Z,57.10
2023-03-02T15:40:30.105Z,57.50
2023-03-02T15:42:57.581Z,58.90
2023-03-02T15:45:25.012Z,59.10
2023-03-02T15:47:52.468Z,59.20
2023-03-02T15:50:19.864Z,60.00
2023-03-02T15:52:47.437Z,61.50
2023-03-02T15:55:15.646Z,61.60
2023-03-02T15:57:43.193Z,62.10
2023-03-02T16:00:13.517Z,62.80
2023-03-02T16:02:41.234Z,63.50
2023-03-02T16:05:09.399Z,63.40
2023-03-02T16:07:37.393Z,63.50
2023-03-02T16:10:05.556Z,63.80
2023-03-02T16:12:33.050Z,64.50
2023-03-02T16:15:00.470Z,63.90
2023-03-02T16:17:27.975Z,63.20
2023-03-02T16:19:55.392Z,63.60
2023-03-02T16:22:22.904Z,64.20
2023-03-02T16:24:50.467Z,64.60
2023-03-02T16:27:18.097Z,65.80
2023-03-02T16:29:45.485Z,66.20
2023-03-02T16:32:13.116Z,67.10
2023-03-02T16:34:40.674Z,67.70
2023-03-02T16:37:08.157Z,69.70
2023-03-02T16:39:36.376Z,71.60
2023-03-02T16:42:04.548Z,71.70
2023-03-02T16:44:31.933Z,73.10
2023-03-02T16:46:59.387Z,73.70
2023-03-02T16:49:26.821Z,75.70
2023-03-02T16:51:58.404Z,75.80
2023-03-02T16:54:25.959Z,76.90
2023-03-02T16:56:53.432Z,78.10
2023-03-02T16:59:20.842Z,80.70
2023-03-02T17:01:48.458Z,83.70
2023-03-02T17:04:18.445Z,85.30
2023-03-02T17:06:59.777Z,87.10
2023-03-02T17:09:28.226Z,89.50
2023-03-02T17:11:55.703Z,90.90
2023-03-02T17:14:23.182Z,92.80
2023-03-02T17:16:50.636Z,93.90
2023-03-02T17:19:18.061Z,96.10
2023-03-02T17:21:45.567Z,97.60
2023-03-02T17:24:13.878Z,98.10
2023-03-02T17:26:41.286Z,98.80
2023-03-02T17:29:08.806Z,99.90
2023-03-02T17:31:36.403Z,99.90
2023-03-02T17:34:03.952Z,99.90
2023-03-02T17:36:36.608Z,99.90
2023-03-02T17:39:05.668Z,99.90
2023-03-02T17:41:34.733Z,99.90
2023-03-02T17:44:03.324Z,99.90
2023-03-02T17:46:32.601Z,99.90
2023-03-02T17:49:01.008Z,99.90
2023-03-02T17:51:29.674Z,99.90
2023-03-02T17:53:57.145Z,99.90
2023-03-02T17:56:26.466Z,99.90
2023-03-02T17:58:56.036Z,99.90
2023-03-02T18:01:23.589Z,99.90
2023-03-02T18:03:51.246Z,99.90
2023-03-02T18:06:20.737Z,99.90
2023-03-02T18:08:49.490Z,99.90
2023-03-02T18:11:20.853Z,99.90
2023-03-02T18:13:49.032Z,99.90
2023-03-02T18:16:16.556Z,99.90
2023-03-02T18:18:44.091Z,99.90
2023-03-02T18:21:11.552Z,99.90
2023-03-02T18:23:39.918Z,99.90
2023-03-02T18:26:08.440Z,99.90
2023-03-02T18:28:35.901Z,99.90
2023-03-02T18:31:03.586Z,99.90
2023-03-02T18:33:31.122Z,99.90
2023-03-02T18:36:00.551Z,99.90
2023-03-02T18:38:31.075Z,99.90
2023-03-02T18:41:00.770Z,99.90
2023-03-02T18:43:28.531Z,99.90
2023-03-02T18:45:56.941Z,99.90
2023-03-02T18:48:25.119Z,99.90
2023-03-02T18:50:52.599Z,99.90
2023-03-02T18:53:20.164Z,99.90
2023-03-02T18:55:47.579Z,99.90
2023-03-02T18:58:20.467Z,99.90
2023-03-02T19:00:48.301Z,99.90
2023-03-02T19:03:17.442Z,99.90
2023-03-02T19:05:45.194Z,99.90
2023-03-02T19:08:12.727Z,99.90
2023-03-02T19:10:42.348Z,99.90
2023-03-02T19:13:11.763Z,99.90
2023-03-02T19:15:40.231Z,99.90
2023-03-02T19:18:08.022Z,99.90
2023-03-02T19:20:35.711Z,99.90
2023-03-02T19:23:03.386Z,99.90
2023-03-02T19:25:30.882Z,99.90
2023-03-02T19:27:58.283Z,99.90
2023-03-02T19:30:26.943Z,99.90
2023-03-02T19:32:54.743Z,99.90
2023-03-02T19:35:25.818Z,99.90
2023-03-02T19:37:53.254Z,99.90
2023-03-02T19:40:24.690Z,99.90
2023-03-02T19:42:53.680Z,99.90
2023-03-02T19:45:25.023Z,99.90
2023-03-02T19:47:52.773Z,99.90
2023-03-02T19:50:21.664Z,99.90
2023-03-02T19:52:49.267Z,99.90
2023-03-02T19:55:16.817Z,99.90
2023-03-02T19:57:44.414Z,99.90
2023-03-02T20:00:16.385Z,99.90
2023-03-02T20:02:45.129Z,99.90
2023-03-02T20:05:12.975Z,99.90
2023-03-02T20:07:41.862Z,99.90
2023-03-02T20:10:11.013Z,99.90
2023-03-02T20:12:38.420Z,99.90
2023-03-02T20:15:07.145Z,99.90
2023-03-02T20:17:34.798Z,99.90
2023-03-02T20:20:03.660Z,99.90
2023-03-02T20:22:31.052Z,99.90
2023-03-02T20:24:58.511Z,99.90
2023-03-02T20:27:25.939Z,99.90
2023-03-02T20:29:53.419Z,99.90
2023-03-02T20:32:21.215Z,99.90
2023-03-02T20:34:48.845Z,99.90
2023-03-02T20:37:16.450Z,99.90
2023-03-02T20:39:47.946Z,99.90
2023-03-02T20:42:15.821Z,99.90
2023-03-02T20:44:43.299Z,99.90
2023-03-02T20:47:14.022Z,99.90
2023-03-02T20:49:42.367Z,99.90
2023-03-02T20:52:10.489Z,99.90
2023-03-02T20:54:40.940Z,99.90
2023-03-02T20:57:09.175Z,99.90
2023-03-02T20:59:37.735Z,99.90
2023-03-02T21:02:06.193Z,99.90
2023-03-02T21:04:34.674Z,99.90
2023-03-02T21:07:02.547Z,99.90
2023-03-02T21:09:30.719Z,99.90
2023-03-02T21:11:58.940Z,99.90
2023-03-02T21:14:27.593Z,99.90
2023-03-02T21:16:55.042Z,99.90
2023-03-02T21:19:22.566Z,99.90
2023-03-02T21:21:50.014Z,99.90
2023-03-02T21:24:17.798Z,99.90
2023-03-02T21:26:46.788Z,99.90
2023-03-02T21:29:15.047Z,99.90
2023-03-02T21:31:43.899Z,99.90
2023-03-02T21:34:13.009Z,99.90
2023-03-02T21:36:41.142Z,99.90
2023-03-02T21:39:09.853Z,99.90
2023-03-02T21:41:37.488Z,99.90
2023-03-02T21:44:06.103Z,99.90
2023-03-02T21:46:34.989Z,99.90
2023-03-02T21:49:02.596Z,99.90
2023-03-02T21:51:30.141Z,99.90
2023-03-02T21:53:57.587Z,99.90
2023-03-02T21:56:25.925Z,99.90
2023-03-02T21:58:56.027Z,99.90
2023-03-02T22:01:24.674Z,99.90
2023-03-02T22:03:52.526Z,99.90
2023-03-02T22:06:25.852Z,99.90
2023-03-02T22:08:54.043Z,99.90
2023-03-02T22:11:41.877Z,99.90
2023-03-02T22:14:17.822Z,99.90
2023-03-02T22:16:48.102Z,99.90
2023-03-02T22:19:32.326Z,99.90
2023-03-02T22:22:03.154Z,99.90
2023-03-02T22:24:32.358Z,99.90
2023-03-02T22:27:28.931Z,99.90
2023-03-02T22:30:00.570Z,99.90
2023-03-02T22:32:36.955Z,99.90
2023-03-02T22:35:26.219Z,99.90
2023-03-02T22:38:05.246Z,99.90
2023-03-02T22:40:35.084Z,99.90
2023-03-02T22:43:21.826Z,99.90
2023-03-02T22:45:49.330Z,99.90
2023-03-02T22:48:19.640Z,99.90
2023-03-02T22:50:49.346Z,99.90
2023-03-02T22:53:25.236Z,99.90
2023-03-02T22:56:01.480Z,99.90
2023-03-02T22:58:49.671Z,99.90
2023-03-02T23:01:29.630Z,99.90
2023-03-02T23:04:19.708Z,99.90
2023-03-02T23:06:53.131Z,99.90
2023-03-02T23:09:26.590Z,99.90
2023-03-02T23:11:56.892Z,99.90
2023-03-02T23:14:34.336Z,99.90
2023-03-02T23:17:34.286Z,99.90
2023-03-02T23:20:02.629Z,99.90
2023-03-02T23:22:31.445Z,99.90
2023-03-02T23:24:59.357Z,99.90
2023-03-02T23:27:27.869Z,99.90
2023-03-02T23:29:55.287Z,99.90
2023-03-02T23:32:22.848Z,99.90
2023-03-02T23:34:50.313Z,99.90
2023-03-02T23:37:17.744Z,99.90
2023-03-02T23:39:46.146Z,99.90
2023-03-02T23:42:13.731Z,99.90
2023-03-02T23:44:41.115Z,99.90
2023-03-02T23:47:08.557Z,99.90
2023-03-02T23:49:35.967Z,99.90
2023-03-02T23:52:03.722Z,99.90
2023-03-02T23:54:31.095Z,99.90
2023-03-02T23:56:58.567Z,99.90
2023-03-02T23:59:25.975Z,99.90
